METAR Data
IDs: Format: Raw Decoded Include TAF

Data at: 2148 UTC 18 Apr 2021

KSMD 182135Z AUTO 34005KT 10SM CLR 15/M04 A2988 RMK A01